Terminal Aerodrome Forecast
Issued by NWS

Home | Current Version | Previous Version | Text Only | Print | Product List | Glossary On
Versions: 1 2 3 4 5 6 7 8 9 10 11 12 13 14
930
FTUS43 KIWX 022339
TAFSBN
TAF
KSBN 022339Z 0300/0324 30006KT P6SM OVC035
      TEMPO 0300/0304 6SM -DZ BR OVC020
     FM030600 27004KT P6SM OVC030
     FM031400 26006KT P6SM VCSH OVC025
     FM031800 28006KT P6SM OVC035=

USA.gov is the U.S. government's official web portal to all federal, state and local government web resources and services.